Portada
METAR-TAF:

METAR-TAF

Aeropuertos :

Aeropuerto Internacional de Nayaf

Nayaf, Iraq

latitud: 31-59-23N, longitud: 44-24-15E, altitud: 31 m

Observación

El informe se hizo hace 5 horas y 46 minutos, a las 23:00 UTC
Viento 3 kt del suroeste
Temperatura 33°C
Humedad 32%
Presión 995 hPa
Visibilidad: 8000 m

METAR: ORNI 072300Z 23003KT 8000 NSC 33/14 Q0995 NOSIG

Hora: 07:46 (04:46 UTC)

Pronóstico

El informe se hizo hace 6 horas y 46 minutos, a las 22:00 UTC
Pronóstico válido del 08 a las 00 UTC al 08 a las 24 UTC
Viento 6 kt del oeste
Visibilidad: 6000 m

TAF: ORNI 072200Z 0800/0824 28006KT 6000 NSC

Observaciones y pronósticos meteorológicos de más de 4000 aeropuertos (mensajes METAR y TAF).

Los puntos amarillos y rojos representan las estaciones disponibles.

Ponga el ratón en el punto deseado para ver el nombre de la estación.

Haga clic para ver las observaciones y los pronósticos meteorológicos.

Para cambiar el mapa : haga clic en los botones verdes con una cruz de color negro para hacer un zoom, en el botón verde con un guión para alejar o en las flechas verdes para mapas adyacentes.


METAR-TAF: